| time (UTC) | temp F | wind direction | speed MPH | gust MPH | rain 1hr in | rain 24hr in | rain mn in | humidity % | barometer mb |
| 20260504140958 | 55 | 270 | 2.0 | 5.0 | 0.00 | 0.00 | 0.00 | 60 | 1006.3 |
| 20260504140457 | 55 | 273 | 2.0 | 5.0 | 0.00 | 0.00 | 0.00 | 61 | 1006.3 |
| 20260504130457 | 47 | 261 | 2.0 | 4.0 | 0.00 | 0.00 | 0.00 | 74 | 1006.1 |
| 20260504110458 | 43 | 314 | 0.0 | 1.0 | 0.00 | 0.00 | 0.00 | 82 | 1006.0 |
| 20260504100458 | 45 | 299 | 0.0 | 1.0 | 0.00 | 0.00 | 0.00 | 78 | 1006.1 |
| 20260504081958 | 50 | 260 | 0.0 | 2.0 | 0.00 | 0.00 | 0.00 | 69 | 1006.6 |
| 20260504081459 | 50 | 260 | 1.0 | 2.0 | 0.00 | 0.00 | 0.00 | 69 | 1006.6 |
| 20260504080458 | 51 | 264 | 1.0 | 2.0 | 0.00 | 0.00 | 0.00 | 68 | 1006.6 |
| 20260504050457 | 56 | 154 | 0.0 | 3.0 | 0.00 | 0.00 | 0.00 | 59 | 1008.5 |
| 20260504045959 | 56 | 154 | 0.0 | 3.0 | 0.00 | 0.00 | 0.00 | 59 | 1008.5 |
| 20260504045458 | 57 | 124 | 1.0 | 3.0 | 0.00 | 0.00 | 0.00 | 58 | 1008.5 |
| 20260504044958 | 57 | 127 | 1.0 | 4.0 | 0.00 | 0.00 | 0.00 | 57 | 1008.6 |
| 20260504044457 | 58 | 110 | 1.0 | 4.0 | 0.00 | 0.00 | 0.00 | 55 | 1008.6 |
| 20260504043458 | 58 | 26 | 2.0 | 3.0 | 0.00 | 0.00 | 0.00 | 50 | 1008.7 |
| 20260504042958 | 58 | 359 | 3.0 | 6.0 | 0.00 | 0.00 | 0.00 | 50 | 1009.4 |
| 20260504042458 | 58 | 356 | 3.0 | 6.0 | 0.00 | 0.00 | 0.00 | 49 | 1009.5 |
| 20260504041957 | 58 | 356 | 3.0 | 5.0 | 0.00 | 0.00 | 0.00 | 50 | 1009.5 |
| 20260504041458 | 58 | 348 | 3.0 | 5.0 | 0.00 | 0.00 | 0.00 | 50 | 1009.3 |
| 20260504040957 | 58 | 344 | 2.0 | 4.0 | 0.00 | 0.00 | 0.00 | 50 | 1009.2 |
| 20260504040458 | 58 | 343 | 1.0 | 3.0 | 0.00 | 0.00 | 0.00 | 51 | 1009.1 |
| 20260504035958 | 58 | 342 | 1.0 | 2.0 | 0.00 | 0.00 | 0.00 | 51 | 1009.0 |
| 20260504035458 | 58 | 345 | 1.0 | 2.0 | 0.00 | 0.00 | 0.00 | 51 | 1009.0 |
| 20260504034458 | 59 | 354 | 1.0 | 2.0 | 0.00 | 0.00 | 0.00 | 50 | 1008.8 |
| 20260504033958 | 59 | 355 | 1.0 | 3.0 | 0.00 | 0.00 | 0.00 | 50 | 1008.8 |
| 20260504033458 | 59 | 355 | 2.0 | 3.0 | 0.00 | 0.00 | 0.00 | 49 | 1008.8 |
| 20260504032958 | 60 | 354 | 2.0 | 3.0 | 0.00 | 0.00 | 0.00 | 50 | 1008.8 |
| 20260504032500 | 60 | 355 | 1.0 | 3.0 | 0.00 | 0.00 | 0.00 | 51 | 1008.7 |
| 20260504031959 | 61 | 0 | 0.0 | 0.0 | 0.00 | 0.00 | 0.00 | 49 | 1008.8 |
| 20260504031458 | 61 | 0 | 0.0 | 0.0 | 0.00 | 0.00 | 0.00 | 47 | 1008.8 |
| 20260504030458 | 62 | 0 | 0.0 | 0.0 | 0.00 | 0.00 | 0.00 | 45 | 1008.8 |
| 20260504025458 | 63 | 0 | 0.0 | 0.0 | 0.00 | 0.00 | 0.00 | 43 | 1008.7 |
| 20260504024958 | 63 | 0 | 0.0 | 0.0 | 0.00 | 0.00 | 0.00 | 43 | 1008.5 |
| 20260504024458 | 64 | 139 | 0.0 | 1.0 | 0.00 | 0.00 | 0.00 | 42 | 1008.4 |
| 20260504023958 | 64 | 139 | 0.0 | 1.0 | 0.00 | 0.00 | 0.00 | 41 | 1008.3 |
| 20260504023457 | 65 | 138 | 0.0 | 1.0 | 0.00 | 0.00 | 0.00 | 40 | 1008.2 |
| 20260504022958 | 65 | 138 | 0.0 | 2.0 | 0.00 | 0.00 | 0.00 | 39 | 1008.1 |
| 20260504021958 | 66 | 122 | 2.0 | 4.0 | 0.00 | 0.00 | 0.00 | 38 | 1008.0 |
| 20260504021458 | 66 | 115 | 3.0 | 6.0 | 0.00 | 0.00 | 0.00 | 38 | 1008.0 |
| 20260504020958 | 66 | 118 | 3.0 | 7.0 | 0.00 | 0.00 | 0.00 | 38 | 1007.9 |
| 20260504015958 | 68 | 115 | 3.0 | 5.0 | 0.00 | 0.00 | 0.00 | 36 | 1007.9 |
| 20260504015458 | 68 | 117 | 3.0 | 5.0 | 0.00 | 0.00 | 0.00 | 36 | 1007.9 |
| 20260504014958 | 68 | 121 | 2.0 | 4.0 | 0.00 | 0.00 | 0.00 | 36 | 1007.9 |
| 20260504014458 | 68 | 121 | 2.0 | 3.0 | 0.00 | 0.00 | 0.00 | 36 | 1007.9 |
| 20260504012958 | 70 | 123 | 2.0 | 4.0 | 0.00 | 0.00 | 0.00 | 34 | 1008.2 |
| 20260504012458 | 71 | 111 | 2.0 | 4.0 | 0.00 | 0.00 | 0.00 | 33 | 1008.2 |
| 20260504011958 | 71 | 110 | 2.0 | 5.0 | 0.00 | 0.00 | 0.00 | 32 | 1008.2 |
| 20260504011458 | 72 | 112 | 3.0 | 6.0 | 0.00 | 0.00 | 0.00 | 32 | 1008.1 |
| 20260504010958 | 72 | 113 | 3.0 | 6.0 | 0.00 | 0.00 | 0.00 | 31 | 1008.1 |
| 20260504010500 | 73 | 116 | 2.0 | 4.0 | 0.00 | 0.00 | 0.00 | 31 | 1008.2 |
| 20260504005958 | 73 | 114 | 2.0 | 4.0 | 0.00 | 0.00 | 0.00 | 30 | 1008.3 |
| 20260504005458 | 73 | 112 | 2.0 | 4.0 | 0.00 | 0.00 | 0.00 | 30 | 1008.4 |
| 20260504004958 | 74 | 111 | 1.0 | 4.0 | 0.00 | 0.00 | 0.00 | 30 | 1008.6 |
| 20260504004459 | 74 | 109 | 1.0 | 4.0 | 0.00 | 0.00 | 0.00 | 27 | 1008.7 |
| 20260504003958 | 74 | 106 | 1.0 | 4.0 | 0.00 | 0.00 | 0.00 | 27 | 1008.6 |
| 20260504003458 | 74 | 109 | 1.0 | 4.0 | 0.00 | 0.00 | 0.00 | 27 | 1008.8 |
| 20260504002958 | 74 | 121 | 1.0 | 4.0 | 0.00 | 0.00 | 0.00 | 27 | 1008.9 |
| 20260504002458 | 74 | 128 | 1.0 | 2.0 | 0.00 | 0.00 | 0.00 | 27 | 1008.9 |
| 20260504001958 | 74 | 135 | 1.0 | 2.0 | 0.00 | 0.00 | 0.00 | 27 | 1008.9 |
| 20260504001459 | 74 | 124 | 2.0 | 3.0 | 0.00 | 0.00 | 0.00 | 27 | 1008.9 |
| 20260504000958 | 74 | 118 | 2.0 | 4.0 | 0.00 | 0.00 | 0.00 | 28 | 1009.0 |
| 20260504000458 | 74 | 116 | 2.0 | 4.0 | 0.00 | 0.00 | 0.00 | 27 | 1009.2 |
| 20260503235958 | 74 | 119 | 3.0 | 5.0 | 0.00 | 0.00 | 0.00 | 28 | 1009.1 |
| 20260503235458 | 74 | 119 | 3.0 | 6.0 | 0.00 | 0.00 | 0.00 | 28 | 1009.2 |
| 20260503234958 | 74 | 116 | 2.0 | 6.0 | 0.00 | 0.00 | 0.00 | 27 | 1009.3 |
| 20260503234458 | 74 | 90 | 1.0 | 4.0 | 0.00 | 0.00 | 0.00 | 28 | 1009.4 |
| 20260503233959 | 75 | 31 | 1.0 | 2.0 | 0.00 | 0.00 | 0.00 | 27 | 1009.5 |
| 20260503233458 | 75 | 10 | 1.0 | 2.0 | 0.00 | 0.00 | 0.00 | 27 | 1009.5 |
| 20260503232958 | 75 | 51 | 1.0 | 3.0 | 0.00 | 0.00 | 0.00 | 28 | 1009.6 |
| 20260503232458 | 75 | 135 | 2.0 | 3.0 | 0.00 | 0.00 | 0.00 | 27 | 1009.6 |
| 20260503231458 | 75 | 160 | 2.0 | 5.0 | 0.00 | 0.00 | 0.00 | 26 | 1009.8 |
| 20260503230458 | 76 | 216 | 2.0 | 4.0 | 0.00 | 0.00 | 0.00 | 26 | 1009.9 |
| 20260503225958 | 76 | 227 | 2.0 | 4.0 | 0.00 | 0.00 | 0.00 | 25 | 1009.9 |
| 20260503225458 | 76 | 251 | 2.0 | 4.0 | 0.00 | 0.00 | 0.00 | 25 | 1010.0 |
| 20260503224958 | 77 | 325 | 2.0 | 7.0 | 0.00 | 0.00 | 0.00 | 25 | 1010.0 |
| 20260503224458 | 76 | 98 | 3.0 | 7.0 | 0.00 | 0.00 | 0.00 | 26 | 1010.1 |
| 20260503223458 | 77 | 157 | 2.0 | 5.0 | 0.00 | 0.00 | 0.00 | 25 | 1010.3 |
| 20260503222958 | 77 | 158 | 2.0 | 6.0 | 0.00 | 0.00 | 0.00 | 26 | 1010.3 |
| 20260503222458 | 76 | 168 | 2.0 | 6.0 | 0.00 | 0.00 | 0.00 | 26 | 1010.4 |
| 20260503221958 | 76 | 162 | 3.0 | 6.0 | 0.00 | 0.00 | 0.00 | 26 | 1010.5 |
| 20260503221458 | 75 | 145 | 3.0 | 6.0 | 0.00 | 0.00 | 0.00 | 27 | 1010.6 |
| 20260503220958 | 75 | 124 | 2.0 | 5.0 | 0.00 | 0.00 | 0.00 | 26 | 1010.7 |
| 20260503220458 | 74 | 349 | 2.0 | 6.0 | 0.00 | 0.00 | 0.00 | 27 | 1010.7 |
| 20260503215959 | 74 | 8 | 3.0 | 6.0 | 0.00 | 0.00 | 0.00 | 27 | 1010.7 |
| 20260503215459 | 74 | 47 | 2.0 | 6.0 | 0.00 | 0.00 | 0.00 | 27 | 1010.9 |
| 20260503214958 | 74 | 48 | 2.0 | 6.0 | 0.00 | 0.00 | 0.00 | 27 | 1010.9 |
| 20260503214458 | 74 | 61 | 2.0 | 4.0 | 0.00 | 0.00 | 0.00 | 27 | 1010.9 |
| 20260503213958 | 75 | 38 | 2.0 | 4.0 | 0.00 | 0.00 | 0.00 | 27 | 1011.0 |
| 20260503213459 | 75 | 12 | 2.0 | 4.0 | 0.00 | 0.00 | 0.00 | 28 | 1011.0 |
| 20260503212959 | 74 | 49 | 2.0 | 6.0 | 0.00 | 0.00 | 0.00 | 28 | 1011.0 |
| 20260503212458 | 75 | 80 | 2.0 | 6.0 | 0.00 | 0.00 | 0.00 | 27 | 1011.1 |
| 20260503211959 | 74 | 79 | 2.0 | 4.0 | 0.00 | 0.00 | 0.00 | 27 | 1011.1 |
| 20260503211458 | 74 | 35 | 3.0 | 4.0 | 0.00 | 0.00 | 0.00 | 27 | 1011.2 |
| 20260503210959 | 74 | 2 | 3.0 | 9.0 | 0.00 | 0.00 | 0.00 | 28 | 1011.4 |
| 20260503210458 | 74 | 3 | 4.0 | 9.0 | 0.00 | 0.00 | 0.00 | 28 | 1011.5 |
| 20260503205959 | 74 | 7 | 3.0 | 9.0 | 0.00 | 0.00 | 0.00 | 28 | 1011.5 |
| 20260503205458 | 74 | 20 | 3.0 | 7.0 | 0.00 | 0.00 | 0.00 | 27 | 1011.6 |
| 20260503204959 | 74 | 20 | 3.0 | 7.0 | 0.00 | 0.00 | 0.00 | 27 | 1011.7 |
| 20260503204458 | 74 | 11 | 4.0 | 9.0 | 0.00 | 0.00 | 0.00 | 28 | 1011.8 |
| 20260503204009 | 74 | 7 | 5.0 | 10.0 | 0.00 | 0.00 | 0.00 | 28 | 1011.9 |
| 20260503203458 | 74 | 7 | 4.0 | 11.0 | 0.00 | 0.00 | 0.00 | 27 | 1011.8 |
| 20260503203003 | 74 | 337 | 2.0 | 11.0 | 0.00 | 0.00 | 0.00 | 28 | 1011.9 |
| 20260503202459 | 74 | 330 | 3.0 | 7.0 | 0.00 | 0.00 | 0.00 | 27 | 1012.0 |
| 20260503201959 | 74 | 355 | 2.0 | 7.0 | 0.00 | 0.00 | 0.00 | 27 | 1011.9 |
| 20260503201458 | 75 | 11 | 2.0 | 5.0 | 0.00 | 0.00 | 0.00 | 26 | 1012.0 |
| 20260503200458 | 74 | 16 | 3.0 | 7.0 | 0.00 | 0.00 | 0.00 | 27 | 1012.0 |
| 20260503195959 | 75 | 28 | 2.0 | 6.0 | 0.00 | 0.00 | 0.00 | 27 | 1012.0 |
| 20260503195458 | 75 | 33 | 2.0 | 5.0 | 0.00 | 0.00 | 0.00 | 27 | 1012.1 |
| 20260503194959 | 75 | 27 | 2.0 | 5.0 | 0.00 | 0.00 | 0.00 | 26 | 1012.2 |
| 20260503194458 | 75 | 325 | 1.0 | 5.0 | 0.00 | 0.00 | 0.00 | 26 | 1012.2 |
| 20260503193959 | 74 | 3 | 2.0 | 7.0 | 0.00 | 0.00 | 0.00 | 28 | 1012.3 |
| 20260503192959 | 74 | 23 | 2.0 | 6.0 | 0.00 | 0.00 | 0.00 | 27 | 1012.3 |
| 20260503192458 | 74 | 4 | 2.0 | 6.0 | 0.00 | 0.00 | 0.00 | 28 | 1012.4 |
| 20260503191459 | 74 | 92 | 2.0 | 6.0 | 0.00 | 0.00 | 0.00 | 27 | 1012.6 |
| 20260503190459 | 74 | 50 | 2.0 | 5.0 | 0.00 | 0.00 | 0.00 | 27 | 1012.7 |
| 20260503185959 | 74 | 36 | 2.0 | 7.0 | 0.00 | 0.00 | 0.00 | 28 | 1012.8 |
| 20260503185458 | 74 | 19 | 2.0 | 7.0 | 0.00 | 0.00 | 0.00 | 29 | 1013.0 |
| 20260503184959 | 74 | 20 | 1.0 | 4.0 | 0.00 | 0.00 | 0.00 | 29 | 1013.0 |
| 20260503184459 | 74 | 166 | 2.0 | 5.0 | 0.00 | 0.00 | 0.00 | 27 | 1013.1 |
| 20260503183958 | 73 | 285 | 2.0 | 5.0 | 0.00 | 0.00 | 0.00 | 28 | 1013.1 |
| 20260503183459 | 73 | 332 | 3.0 | 7.0 | 0.00 | 0.00 | 0.00 | 28 | 1013.3 |
| 20260503182958 | 72 | 339 | 3.0 | 7.0 | 0.00 | 0.00 | 0.00 | 28 | 1013.4 |
| 20260503182459 | 73 | 357 | 3.0 | 10.0 | 0.00 | 0.00 | 0.00 | 30 | 1013.4 |
| 20260503181958 | 73 | 14 | 2.0 | 10.0 | 0.00 | 0.00 | 0.00 | 28 | 1013.5 |
| 20260503180958 | 72 | 13 | 2.0 | 8.0 | 0.00 | 0.00 | 0.00 | 31 | 1013.7 |
| 20260503180458 | 71 | 1 | 3.0 | 8.0 | 0.00 | 0.00 | 0.00 | 30 | 1013.6 |
| 20260503175459 | 72 | 43 | 3.0 | 8.0 | 0.00 | 0.00 | 0.00 | 30 | 1013.8 |
| 20260503174959 | 72 | 95 | 1.0 | 4.0 | 0.00 | 0.00 | 0.00 | 28 | 1013.9 |
| 20260503174459 | 72 | 64 | 2.0 | 7.0 | 0.00 | 0.00 | 0.00 | 29 | 1014.0 |
| 20260503173959 | 71 | 28 | 3.0 | 10.0 | 0.00 | 0.00 | 0.00 | 30 | 1014.2 |
| 20260503173459 | 71 | 22 | 3.0 | 10.0 | 0.00 | 0.00 | 0.00 | 31 | 1014.2 |
| 20260503172958 | 71 | 58 | 2.0 | 5.0 | 0.00 | 0.00 | 0.00 | 33 | 1014.3 |
| 20260503172458 | 70 | 58 | 3.0 | 8.0 | 0.00 | 0.00 | 0.00 | 31 | 1014.4 |
| 20260503171959 | 70 | 29 | 3.0 | 8.0 | 0.00 | 0.00 | 0.00 | 31 | 1014.5 |
| 20260503171001 | 70 | 16 | 4.0 | 9.0 | 0.00 | 0.00 | 0.00 | 31 | 1014.7 |
| 20260503170458 | 70 | 20 | 3.0 | 9.0 | 0.00 | 0.00 | 0.00 | 32 | 1014.7 |
| 20260503150959 | 63 | 25 | 5.0 | 8.0 | 0.00 | 0.00 | 0.00 | 39 | 1015.5 |
| 20260503150458 | 62 | 24 | 5.0 | 9.0 | 0.00 | 0.00 | 0.00 | 38 | 1015.6 |